Time;durP1;ratioP1;P1;durP2;ratioP2;P2;SDS_P1;SDS_P2;PMS_P1;PMS_P2;Temp;Humidity;BMP_temperature;BMP_pressure;BME280_temperature;BME280_humidity;BME280_pressure;Samples;Min_cycle;Max_cycle;Signal;HPM_P1;HPM_P2
2021/07/02 00:00:56;;;;;;;61.30;29.63;;;13.60;99.90;;;;;;4992759;28;20265;-62
2021/07/02 00:03:23;;;;;;;61.77;29.77;;;13.60;99.90;;;;;;4992757;28;20216;-62
2021/07/02 00:05:51;;;;;;;67.87;30.53;;;13.50;99.90;;;;;;4992509;28;20230;-63
2021/07/02 00:08:18;;;;;;;67.50;31.07;;;13.50;99.90;;;;;;4992549;28;20234;-64
2021/07/02 00:10:44;;;;;;;64.40;29.60;;;13.50;1.00;;;;;;4992445;28;20207;-63
2021/07/02 00:13:11;;;;;;;69.47;31.13;;;13.50;1.00;;;;;;4992362;28;20288;-62
2021/07/02 00:15:37;;;;;;;63.87;29.10;;;13.60;1.00;;;;;;4992622;28;20258;-63
2021/07/02 00:18:04;;;;;;;60.37;29.40;;;13.50;1.00;;;;;;4994014;28;20296;-63
2021/07/02 00:20:31;;;;;;;62.53;29.10;;;13.50;1.00;;;;;;4996621;28;20274;-63
2021/07/02 00:22:59;;;;;;;65.10;30.60;;;13.60;1.00;;;;;;4996505;28;20215;-63
2021/07/02 00:25:26;;;;;;;63.67;30.03;;;13.60;99.90;;;;;;4996235;28;20227;-63
2021/07/02 00:27:52;;;;;;;66.70;30.23;;;13.50;99.90;;;;;;4996306;28;20210;-64
2021/07/02 00:30:20;;;;;;;69.23;31.00;;;13.50;99.90;;;;;;4997052;28;20211;-62
2021/07/02 00:32:46;;;;;;;64.57;31.53;;;13.40;1.00;;;;;;4996936;28;20702;-63
2021/07/02 00:35:13;;;;;;;78.50;31.33;;;13.40;1.00;;;;;;4996213;28;20211;-63
2021/07/02 00:37:39;;;;;;;79.53;32.33;;;13.30;1.00;;;;;;4996301;28;20265;-63
2021/07/02 00:40:09;;;;;;;73.37;32.37;;;13.30;84.80;;;;;;4996120;28;20764;-62
2021/07/02 00:42:36;;;;;;;72.30;32.10;;;13.30;99.90;;;;;;4996098;28;20260;-62
2021/07/02 00:45:03;;;;;;;79.43;31.70;;;13.30;99.90;;;;;;4997124;28;20207;-63
2021/07/02 00:47:30;;;;;;;81.20;31.33;;;13.40;99.90;;;;;;4996446;28;20215;-64
2021/07/02 00:49:56;;;;;;;78.60;32.27;;;13.40;99.90;;;;;;4996276;28;20221;-62
2021/07/02 00:52:23;;;;;;;69.23;31.90;;;13.40;99.90;;;;;;4996210;28;20623;-64
2021/07/02 00:54:52;;;;;;;81.03;32.27;;;13.40;99.90;;;;;;4995572;28;20206;-63
2021/07/02 00:57:23;;;;;;;71.50;31.53;;;13.30;99.90;;;;;;4996725;28;20286;-63
2021/07/02 00:59:50;;;;;;;80.67;32.97;;;13.30;99.90;;;;;;4996573;28;20290;-62
2021/07/02 01:02:18;;;;;;;89.03;34.00;;;13.20;99.90;;;;;;4996621;28;20215;-64
2021/07/02 01:04:44;;;;;;;89.60;33.97;;;13.30;99.90;;;;;;4995989;28;20309;-62
2021/07/02 01:07:12;;;;;;;87.83;34.63;;;13.20;99.90;;;;;;4996429;28;20275;-63
2021/07/02 01:09:41;;;;;;;87.47;34.73;;;13.30;99.90;;;;;;4995861;28;20608;-62
2021/07/02 01:12:10;;;;;;;90.70;34.93;;;13.20;99.90;;;;;;4996459;28;20305;-62
2021/07/02 01:14:38;;;;;;;102.90;36.87;;;13.30;99.90;;;;;;4996327;28;20724;-62
2021/07/02 01:17:05;;;;;;;91.13;33.73;;;13.20;99.90;;;;;;4999333;28;20289;-62
2021/07/02 01:19:32;;;;;;;96.17;34.97;;;13.30;99.90;;;;;;4999072;28;20210;-63
2021/07/02 01:22:00;;;;;;;94.40;36.43;;;13.20;99.90;;;;;;4995500;28;20211;-62
2021/07/02 01:24:27;;;;;;;91.67;36.10;;;13.30;99.90;;;;;;4995436;28;20622;-62
2021/07/02 01:26:54;;;;;;;86.53;35.30;;;13.30;99.90;;;;;;4995365;28;20227;-62
2021/07/02 01:29:21;;;;;;;95.07;34.93;;;13.30;99.90;;;;;;4994992;28;20294;-62
2021/07/02 01:31:48;;;;;;;94.30;34.63;;;13.30;99.90;;;;;;4995207;28;20211;-63
2021/07/02 01:34:14;;;;;;;111.53;38.93;;;13.20;99.90;;;;;;4995080;28;20262;-63
2021/07/02 01:36:41;;;;;;;107.50;38.77;;;13.20;99.90;;;;;;4994898;28;20242;-62
2021/07/02 01:39:09;;;;;;;102.87;38.63;;;13.20;99.90;;;;;;4995088;28;20730;-63
2021/07/02 01:41:36;;;;;;;97.23;37.20;;;13.20;99.90;;;;;;4994933;28;20257;-62
2021/07/02 01:44:03;;;;;;;105.57;37.13;;;13.20;99.90;;;;;;4995002;28;20204;-63
2021/07/02 01:46:30;;;;;;;99.10;36.80;;;13.20;99.90;;;;;;4995006;28;20224;-62
2021/07/02 01:48:57;;;;;;;98.43;37.77;;;13.30;99.90;;;;;;4994853;28;20234;-62
2021/07/02 01:51:23;;;;;;;98.20;37.67;;;13.30;99.90;;;;;;4995106;28;20305;-60
2021/07/02 01:53:50;;;;;;;101.10;37.93;;;13.20;99.90;;;;;;4994669;28;20214;-63
2021/07/02 01:56:18;;;;;;;93.17;38.07;;;13.30;99.90;;;;;;4994801;28;20647;-60
2021/07/02 01:58:44;;;;;;;100.23;38.77;;;13.30;99.90;;;;;;4995699;28;20642;-63
2021/07/02 02:01:11;;;;;;;103.83;37.63;;;13.20;99.90;;;;;;4995879;28;20680;-63
2021/07/02 02:03:38;;;;;;;112.20;39.10;;;13.30;99.90;;;;;;4994991;28;20264;-62
2021/07/02 02:06:04;;;;;;;109.40;39.70;;;13.20;99.90;;;;;;4995393;28;20233;-63
2021/07/02 02:08:31;;;;;;;104.97;39.07;;;13.20;99.90;;;;;;4997258;28;20366;-63
2021/07/02 02:10:58;;;;;;;106.80;39.47;;;13.20;99.90;;;;;;4997978;28;20215;-63
2021/07/02 02:13:26;;;;;;;118.90;41.30;;;13.20;99.90;;;;;;4996358;28;20261;-63
2021/07/02 02:15:52;;;;;;;103.73;38.47;;;13.20;99.90;;;;;;4994340;28;20289;-62
2021/07/02 02:18:19;;;;;;;105.97;39.00;;;13.20;99.90;;;;;;4994465;28;20205;-63
2021/07/02 02:20:46;;;;;;;115.27;42.37;;;13.20;99.90;;;;;;4994472;28;20246;-62
2021/07/02 02:23:12;;;;;;;122.50;41.33;;;13.10;99.90;;;;;;4994383;28;20212;-62
2021/07/02 02:25:39;;;;;;;113.67;39.97;;;13.20;99.90;;;;;;4994067;28;20228;-64
2021/07/02 02:28:06;;;;;;;111.33;40.60;;;13.20;99.90;;;;;;4994192;28;20265;-62
2021/07/02 02:30:36;;;;;;;97.23;37.83;;;13.20;99.90;;;;;;4994052;28;20230;-62
2021/07/02 02:33:04;;;;;;;94.70;38.70;;;13.20;99.90;;;;;;4994534;28;20237;-62
2021/07/02 02:35:31;;;;;;;102.53;38.30;;;13.20;99.90;;;;;;4993978;28;20319;-63
2021/07/02 02:37:57;;;;;;;94.17;37.17;;;13.30;99.90;;;;;;4994104;28;20627;-63
2021/07/02 02:40:24;;;;;;;103.17;39.27;;;13.30;99.90;;;;;;4993004;28;20572;-63
2021/07/02 02:42:50;;;;;;;102.80;37.27;;;13.30;99.90;;;;;;4994214;28;20257;-62
2021/07/02 02:45:17;;;;;;;106.03;39.00;;;13.20;99.90;;;;;;4993542;28;20290;-63
2021/07/02 02:47:45;;;;;;;98.37;37.47;;;13.30;99.90;;;;;;4993959;28;20266;-63
2021/07/02 02:50:12;;;;;;;100.73;38.63;;;13.30;99.90;;;;;;4993911;28;20230;-63
2021/07/02 02:52:39;;;;;;;98.50;38.27;;;13.30;99.90;;;;;;4994008;28;20210;-63
2021/07/02 02:55:06;;;;;;;103.37;38.87;;;13.20;99.90;;;;;;4993550;28;20257;-63
2021/07/02 02:57:33;;;;;;;105.57;38.37;;;13.20;99.90;;;;;;4993877;28;20259;-62
2021/07/02 02:59:59;;;;;;;102.80;38.30;;;13.20;99.90;;;;;;4993788;28;20254;-62
2021/07/02 03:02:26;;;;;;;107.47;37.40;;;13.10;99.90;;;;;;4993544;28;20266;-63
2021/07/02 03:04:54;;;;;;;106.23;38.70;;;13.20;99.90;;;;;;4993385;28;20729;-62
2021/07/02 03:07:21;;;;;;;95.30;37.30;;;13.20;99.90;;;;;;4993486;28;20270;-62
2021/07/02 03:09:48;;;;;;;93.57;37.80;;;13.20;99.90;;;;;;4993274;28;20729;-62
2021/07/02 03:12:14;;;;;;;95.73;36.87;;;13.20;99.90;;;;;;4993571;28;20270;-63
2021/07/02 03:14:41;;;;;;;95.80;37.40;;;13.20;99.90;;;;;;4993307;28;20218;-62
2021/07/02 03:17:08;;;;;;;91.63;36.13;;;13.20;99.90;;;;;;4993400;28;20230;-62
2021/07/02 03:19:34;;;;;;;86.43;33.70;;;13.20;99.90;;;;;;4993325;28;20247;-62
2021/07/02 03:22:02;;;;;;;78.80;35.07;;;13.20;99.90;;;;;;4993271;28;20256;-63
2021/07/02 03:24:29;;;;;;;96.87;36.47;;;13.20;99.90;;;;;;4992891;28;20259;-62
2021/07/02 03:26:55;;;;;;;86.40;34.40;;;13.20;99.90;;;;;;4992874;28;20227;-62
2021/07/02 03:29:22;;;;;;;92.83;37.10;;;13.30;99.90;;;;;;4993250;28;20228;-63
2021/07/02 03:31:49;;;;;;;84.83;34.53;;;13.20;99.90;;;;;;4993196;28;20258;-63
2021/07/02 03:34:15;;;;;;;95.10;34.70;;;13.20;99.90;;;;;;4993343;28;20262;-63
2021/07/02 03:36:42;;;;;;;73.70;32.80;;;13.20;99.90;;;;;;4992992;28;20233;-62
2021/07/02 03:39:10;;;;;;;80.47;32.90;;;13.30;99.90;;;;;;4992978;28;20264;-62
2021/07/02 03:41:36;;;;;;;76.73;32.27;;;13.30;99.90;;;;;;4992686;28;20211;-62
2021/07/02 03:44:03;;;;;;;75.57;30.97;;;13.30;99.90;;;;;;4993002;28;20273;-64
2021/07/02 03:46:30;;;;;;;76.67;31.93;;;13.30;99.90;;;;;;4992777;28;20238;-63
2021/07/02 03:48:57;;;;;;;78.40;31.13;;;13.40;99.90;;;;;;4992897;28;20305;-62
2021/07/02 03:51:24;;;;;;;78.50;32.20;;;13.40;99.90;;;;;;4992537;28;20257;-62
2021/07/02 03:53:50;;;;;;;75.90;30.73;;;13.40;99.90;;;;;;4992556;28;20676;-63
2021/07/02 03:56:19;;;;;;;67.00;30.10;;;13.40;99.90;;;;;;4992461;28;20234;-63
2021/07/02 03:58:45;;;;;;;61.13;28.93;;;13.40;99.90;;;;;;4992867;28;20285;-63
2021/07/02 04:01:12;;;;;;;59.53;28.57;;;13.40;99.90;;;;;;4992748;28;20212;-63
2021/07/02 04:03:38;;;;;;;60.37;27.73;;;13.50;99.90;;;;;;4992564;28;20568;-62
2021/07/02 04:06:05;;;;;;;64.73;28.73;;;13.50;99.90;;;;;;4992436;28;20723;-63
2021/07/02 04:08:32;;;;;;;59.23;27.33;;;13.50;80.50;;;;;;4992375;28;20215;-63
2021/07/02 04:10:59;;;;;;;67.60;29.13;;;13.50;37.40;;;;;;4992663;28;20233;-62
2021/07/02 04:13:26;;;;;;;65.60;28.00;;;13.50;4.00;;;;;;4992519;28;20208;-62
2021/07/02 04:15:54;;;;;;;60.17;28.43;;;13.50;1.00;;;;;;4992461;28;20231;-62
2021/07/02 04:18:21;;;;;;;59.40;27.77;;;13.50;1.00;;;;;;4976744;28;20219;-62
2021/07/02 04:20:48;;;;;;;62.13;28.20;;;13.50;1.00;;;;;;4973032;28;20724;-62
2021/07/02 04:23:14;;;;;;;57.33;26.50;;;13.50;1.00;;;;;;4986294;28;20238;-63
2021/07/02 04:25:41;;;;;;;63.97;28.83;;;13.40;1.00;;;;;;4981331;28;20237;-62
2021/07/02 04:28:07;;;;;;;65.80;27.37;;;13.50;99.90;;;;;;4974476;28;20278;-62
2021/07/02 04:30:36;;;;;;;65.30;27.63;;;13.40;99.90;;;;;;4972704;28;20239;-64
2021/07/02 04:33:02;;;;;;;62.83;29.23;;;13.50;99.90;;;;;;4972919;28;20215;-64
2021/07/02 04:35:29;;;;;;;63.70;28.03;;;13.50;99.90;;;;;;4972679;28;20231;-62
2021/07/02 04:37:56;;;;;;;60.87;26.10;;;13.50;99.90;;;;;;4973043;28;20215;-62
2021/07/02 04:40:22;;;;;;;54.73;27.67;;;13.60;58.80;;;;;;4974073;28;20205;-63
2021/07/02 04:42:49;;;;;;;54.30;26.93;;;13.50;1.00;;;;;;4992359;28;20208;-64
2021/07/02 04:45:16;;;;;;;52.20;26.70;;;13.50;1.00;;;;;;4992151;28;20235;-64
2021/07/02 04:47:44;;;;;;;53.53;27.13;;;13.60;1.00;;;;;;4992233;28;20212;-64
2021/07/02 04:50:11;;;;;;;56.30;25.90;;;13.60;1.00;;;;;;4991704;28;20274;-62
2021/07/02 04:52:38;;;;;;;56.90;26.63;;;13.60;1.00;;;;;;4992182;28;20671;-64
2021/07/02 04:55:05;;;;;;;59.17;27.17;;;13.60;1.00;;;;;;4991986;28;20219;-65
2021/07/02 04:57:32;;;;;;;55.47;26.70;;;13.60;1.00;;;;;;4992304;28;20269;-64
2021/07/02 05:00:01;;;;;;;60.87;27.07;;;13.60;1.00;;;;;;4992099;28;20577;-63
2021/07/02 05:02:28;;;;;;;51.10;25.43;;;13.60;1.00;;;;;;4992048;28;20204;-64
2021/07/02 05:04:56;;;;;;;59.90;27.50;;;13.60;99.90;;;;;;4994530;28;20211;-66
2021/07/02 05:07:23;;;;;;;54.50;27.53;;;13.60;99.90;;;;;;4995721;28;20222;-64
2021/07/02 05:09:50;;;;;;;56.43;27.80;;;13.60;99.90;;;;;;4995546;28;20235;-64
2021/07/02 05:12:16;;;;;;;63.40;27.77;;;13.70;1.00;;;;;;4995531;28;20211;-64
2021/07/02 05:14:43;;;;;;;65.13;27.90;;;13.70;99.90;;;;;;4995741;28;20208;-64
2021/07/02 05:17:10;;;;;;;60.27;29.03;;;13.70;99.90;;;;;;4995661;28;20780;-64
2021/07/02 05:19:40;;;;;;;61.80;27.80;;;13.60;99.90;;;;;;4995516;28;20608;-63
2021/07/02 05:22:09;;;;;;;59.97;28.67;;;13.70;52.00;;;;;;4995750;28;20214;-63
2021/07/02 05:24:35;;;;;;;64.10;29.43;;;13.70;1.00;;;;;;4995640;28;20738;-62
2021/07/02 05:27:02;;;;;;;60.47;29.07;;;13.70;1.00;;;;;;4995748;28;20224;-65
2021/07/02 05:29:28;;;;;;;58.37;29.50;;;13.70;1.00;;;;;;4993034;28;20269;-66
2021/07/02 05:31:55;;;;;;;66.07;30.03;;;13.70;1.00;;;;;;4977554;28;20585;-66
2021/07/02 05:34:22;;;;;;;58.43;28.53;;;13.80;1.00;;;;;;4991690;28;20218;-65
2021/07/02 05:36:48;;;;;;;61.60;28.73;;;13.90;1.00;;;;;;4991637;28;20715;-66
2021/07/02 05:39:16;;;;;;;62.47;28.90;;;13.90;99.90;;;;;;4991942;28;20274;-66
2021/07/02 05:41:43;;;;;;;53.40;27.87;;;14.00;99.90;;;;;;4992242;28;20211;-66
2021/07/02 05:44:10;;;;;;;57.73;29.33;;;14.00;1.00;;;;;;4991386;28;20637;-66
2021/07/02 05:46:36;;;;;;;53.67;26.83;;;14.00;99.90;;;;;;4991527;28;20293;-67
2021/07/02 05:49:05;;;;;;;55.27;27.40;;;14.00;1.00;;;;;;4983463;28;20212;-65
2021/07/02 05:51:31;;;;;;;59.33;28.13;;;14.20;1.00;;;;;;4972410;28;20659;-65
2021/07/02 05:53:58;;;;;;;54.90;25.93;;;14.20;99.90;;;;;;4971891;28;20800;-65
2021/07/02 05:56:28;;;;;;;61.23;28.00;;;14.20;1.00;;;;;;4972103;28;20239;-64
2021/07/02 05:58:55;;;;;;;53.67;26.73;;;14.30;1.00;;;;;;4972036;28;20571;-65
2021/07/02 06:01:23;;;;;;;50.13;26.13;;;14.40;99.90;;;;;;4977286;28;20275;-65
2021/07/02 06:03:49;;;;;;;45.63;25.37;;;14.50;99.90;;;;;;4980501;28;20283;-64
2021/07/02 06:06:16;;;;;;;54.50;25.70;;;14.50;1.00;;;;;;4976337;28;20224;-63
2021/07/02 06:08:43;;;;;;;50.77;24.50;;;14.60;44.40;;;;;;4977292;28;20216;-63
2021/07/02 06:11:10;;;;;;;42.57;23.43;;;14.60;99.90;;;;;;4979772;28;20224;-65
2021/07/02 06:13:38;;;;;;;53.33;25.17;;;14.50;1.00;;;;;;4979283;28;20204;-65
2021/07/02 06:16:05;;;;;;;49.47;26.00;;;14.50;1.00;;;;;;4976489;28;20236;-64
2021/07/02 06:18:32;;;;;;;48.50;24.30;;;14.60;1.00;;;;;;4975143;28;20212;-65
2021/07/02 06:20:59;;;;;;;45.70;25.77;;;14.50;99.90;;;;;;4974812;28;20208;-66
2021/07/02 06:23:28;;;;;;;47.93;24.87;;;14.50;99.90;;;;;;4974648;28;20571;-66
2021/07/02 06:25:55;;;;;;;51.30;25.00;;;14.50;1.00;;;;;;4974583;28;20724;-68
2021/07/02 06:28:22;;;;;;;46.93;25.27;;;14.40;1.00;;;;;;4974425;28;20712;-65
2021/07/02 06:30:49;;;;;;;50.53;25.37;;;14.50;1.00;;;;;;4974718;28;20231;-65
2021/07/02 06:33:16;;;;;;;49.07;23.67;;;14.40;1.00;;;;;;4973973;28;20220;-65
2021/07/02 06:35:43;;;;;;;46.13;22.90;;;14.50;1.00;;;;;;4974032;28;20713;-65
2021/07/02 06:38:09;;;;;;;43.00;23.67;;;14.50;55.50;;;;;;4974269;28;20212;-65
2021/07/02 06:40:36;;;;;;;43.23;22.77;;;14.60;23.20;;;;;;4973978;28;20208;-65
2021/07/02 06:43:03;;;;;;;35.10;20.70;;;14.70;1.00;;;;;;4974145;28;20278;-64
2021/07/02 06:45:31;;;;;;;43.00;22.00;;;14.70;1.00;;;;;;4974528;28;20295;-64
2021/07/02 06:48:00;;;;;;;39.50;22.00;;;14.80;99.90;;;;;;4974330;28;20267;-65
2021/07/02 06:50:29;;;;;;;38.50;21.03;;;14.90;99.90;;;;;;4973885;28;20228;-63
2021/07/02 06:52:56;;;;;;;34.50;19.40;;;15.10;99.90;;;;;;4973679;28;20205;-63
2021/07/02 06:55:23;;;;;;;32.13;18.93;;;15.20;1.00;;;;;;4973338;28;20224;-63
2021/07/02 06:57:49;;;;;;;37.30;19.40;;;15.30;1.00;;;;;;4973969;28;20209;-64
2021/07/02 07:00:18;;;;;;;34.80;19.23;;;15.40;1.00;;;;;;4973874;28;20255;-62
2021/07/02 07:02:44;;;;;;;33.27;19.13;;;15.50;99.90;;;;;;4973440;28;20212;-62
2021/07/02 07:05:14;;;;;;;33.67;20.83;;;15.60;99.90;;;;;;4973485;28;20255;-62
2021/07/02 07:07:42;;;;;;;34.60;20.10;;;15.90;99.90;;;;;;4973426;28;20270;-61
2021/07/02 07:10:10;;;;;;;32.80;18.13;;;16.10;99.90;;;;;;4973426;28;20266;-62
2021/07/02 07:12:38;;;;;;;34.37;15.87;;;16.30;99.90;;;;;;4973837;28;20637;-61
2021/07/02 07:15:06;;;;;;;23.20;12.20;;;16.60;99.90;;;;;;4973449;28;20332;-61
2021/07/02 07:17:33;;;;;;;22.50;11.40;;;16.70;1.00;;;;;;4973537;28;20624;-62
2021/07/02 07:20:00;;;;;;;21.13;10.63;;;16.70;99.90;;;;;;4973524;28;20208;-62
2021/07/02 07:22:30;;;;;;;17.43;10.77;;;16.50;43.30;;;;;;4973139;28;20279;-62
2021/07/02 07:24:57;;;;;;;17.97;9.70;;;16.50;1.00;;;;;;4973077;28;20726;-63
2021/07/02 07:27:24;;;;;;;23.60;10.13;;;16.60;99.90;;;;;;4973085;28;20270;-63
2021/07/02 07:29:50;;;;;;;14.90;9.00;;;16.70;99.90;;;;;;4973364;28;20329;-63
2021/07/02 07:32:17;;;;;;;17.77;9.30;;;16.80;92.20;;;;;;4972933;28;20228;-63
2021/07/02 07:34:46;;;;;;;11.57;8.07;;;16.80;1.00;;;;;;4972928;28;20208;-63
2021/07/02 07:37:17;;;;;;;18.03;9.20;;;16.90;1.00;;;;;;4973017;28;20267;-63
2021/07/02 07:39:45;;;;;;;16.27;9.30;;;16.90;1.00;;;;;;4973144;28;20251;-64
2021/07/02 07:42:11;;;;;;;17.10;9.43;;;17.10;8.40;;;;;;4972995;28;20220;-64
2021/07/02 07:44:38;;;;;;;13.40;7.87;;;17.10;1.00;;;;;;4992509;28;20211;-63
2021/07/02 07:47:05;;;;;;;13.27;7.07;;;17.20;1.00;;;;;;4992365;28;20325;-62
2021/07/02 07:49:32;;;;;;;13.30;7.67;;;17.20;1.00;;;;;;4992392;28;20203;-62
2021/07/02 07:52:01;;;;;;;12.07;7.10;;;17.20;1.00;;;;;;4992293;28;20274;-62
2021/07/02 07:54:28;;;;;;;8.97;5.80;;;17.30;1.00;;;;;;4992269;28;20208;-63
2021/07/02 07:56:56;;;;;;;9.63;5.23;;;17.50;1.00;;;;;;4992179;28;20274;-63
2021/07/02 07:59:27;;;;;;;9.80;5.83;;;17.40;1.00;;;;;;4992294;28;20203;-65
2021/07/02 08:01:54;;;;;;;9.47;5.37;;;17.50;1.00;;;;;;4992184;28;20199;-65
2021/07/02 08:04:21;;;;;;;8.57;4.80;;;17.60;1.00;;;;;;4992250;28;20215;-65
2021/07/02 08:06:50;;;;;;;8.43;5.03;;;17.70;1.00;;;;;;4992496;28;20282;-66
2021/07/02 08:09:17;;;;;;;8.57;4.73;;;17.80;1.00;;;;;;4992001;28;20211;-65
2021/07/02 08:11:44;;;;;;;7.17;4.73;;;18.00;1.00;;;;;;4992038;28;20262;-65
2021/07/02 08:14:13;;;;;;;14.60;5.60;;;18.10;99.90;;;;;;4992137;28;20216;-64
2021/07/02 08:16:41;;;;;;;10.67;6.10;;;18.20;1.00;;;;;;4992048;28;20227;-63
2021/07/02 08:19:08;;;;;;;8.57;5.07;;;18.10;1.00;;;;;;4992265;28;20212;-66
2021/07/02 08:21:35;;;;;;;9.53;4.90;;;18.20;1.00;;;;;;4992351;28;20207;-65
2021/07/02 08:24:01;;;;;;;9.53;4.57;;;18.20;99.90;;;;;;4991946;28;20253;-66
2021/07/02 08:26:28;;;;;;;12.77;4.40;;;18.30;99.90;;;;;;4992045;28;20739;-65
2021/07/02 08:31:40;;;;;;;6.43;3.93;;;17.90;1.00;;;;;;4991892;28;20237;-67
2021/07/02 08:34:07;;;;;;;7.40;3.53;;;18.20;1.00;;;;;;4992357;28;20242;-63
2021/07/02 08:36:34;;;;;;;6.30;3.97;;;18.40;99.90;;;;;;4991841;28;20227;-65
2021/07/02 08:39:01;;;;;;;6.50;3.43;;;18.40;1.00;;;;;;4993288;28;20902;-64
2021/07/02 08:41:27;;;;;;;7.13;3.60;;;18.50;99.90;;;;;;4995605;28;20646;-64
2021/07/02 08:43:54;;;;;;;7.63;3.03;;;18.60;99.90;;;;;;4995386;28;20656;-65
2021/07/02 08:46:22;;;;;;;5.77;2.77;;;18.70;99.90;;;;;;4995872;28;20597;-62
2021/07/02 08:48:51;;;;;;;5.63;2.93;;;18.40;99.90;;;;;;4995844;28;20291;-62
2021/07/02 08:51:18;;;;;;;4.33;2.97;;;18.30;99.90;;;;;;4995685;28;20220;-65
2021/07/02 08:53:45;;;;;;;6.23;2.80;;;18.40;99.90;;;;;;4994974;28;20631;-64
2021/07/02 08:56:12;;;;;;;4.30;2.37;;;18.50;99.90;;;;;;4995287;28;20231;-61
2021/07/02 08:58:39;;;;;;;5.00;3.03;;;18.50;99.90;;;;;;4995508;28;20611;-64
2021/07/02 09:01:08;;;;;;;3.83;2.53;;;18.70;99.90;;;;;;4995623;28;20238;-65
2021/07/02 09:03:36;;;;;;;4.73;2.23;;;18.80;99.90;;;;;;4995075;28;20212;-64
2021/07/02 09:06:15;;;;;;;3.53;2.20;;;19.00;99.90;;;;;;4995320;28;20234;-64
2021/07/02 09:08:58;;;;;;;7.80;2.40;;;19.00;99.90;;;;;;4995068;28;20219;-65
2021/07/02 09:11:27;;;;;;;5.10;2.30;;;19.00;99.90;;;;;;4995381;28;20239;-66
2021/07/02 09:13:54;;;;;;;4.13;2.40;;;18.90;99.90;;;;;;4994973;28;20217;-63
2021/07/02 09:16:22;;;;;;;4.03;2.63;;;18.70;99.90;;;;;;4995133;28;20227;-63
2021/07/02 09:18:49;;;;;;;4.07;2.47;;;18.50;99.90;;;;;;4995195;28;20215;-64
2021/07/02 09:21:24;;;;;;;4.37;2.50;;;18.70;99.90;;;;;;4995122;28;20270;-64
2021/07/02 09:23:51;;;;;;;5.03;2.80;;;18.70;99.90;;;;;;4994796;28;20625;-64
2021/07/02 09:26:34;;;;;;;8.97;4.70;;;18.80;99.90;;;;;;4994897;28;20228;-64
2021/07/02 09:29:19;;;;;;;7.10;3.60;;;19.00;99.90;;;;;;4994948;28;20219;-63
2021/07/02 09:31:56;;;;;;;6.67;2.87;;;19.20;99.90;;;;;;4994621;28;20246;-65
2021/07/02 09:34:23;;;;;;;4.57;3.10;;;19.20;99.90;;;;;;4994747;28;20214;-63
2021/07/02 09:36:51;;;;;;;6.07;3.53;;;19.20;99.90;;;;;;4994861;28;20274;-63
2021/07/02 09:39:30;;;;;;;6.00;2.83;;;19.20;99.90;;;;;;4994782;28;20258;-63
2021/07/02 09:41:57;;;;;;;9.30;3.73;;;19.20;99.90;;;;;;4994487;28;20214;-64
2021/07/02 09:44:24;;;;;;;5.60;3.33;;;19.30;99.90;;;;;;4994615;28;20207;-64
2021/07/02 09:46:50;;;;;;;5.37;2.70;;;19.60;99.90;;;;;;4994756;28;20235;-64
2021/07/02 09:49:27;;;;;;;7.10;4.23;;;19.30;99.90;;;;;;4994180;28;20204;-64
2021/07/02 09:52:06;;;;;;;6.17;3.47;;;19.20;99.90;;;;;;4994546;28;20223;-64
2021/07/02 09:54:33;;;;;;;5.33;4.20;;;19.10;99.90;;;;;;4994425;28;20695;-65
2021/07/02 09:57:18;;;;;;;8.40;4.10;;;19.30;99.90;;;;;;4995095;28;20228;-65
2021/07/02 10:00:03;;;;;;;6.60;3.90;;;19.20;99.90;;;;;;4994442;28;20235;-66
2021/07/02 10:02:29;;;;;;;4.57;3.20;;;18.90;99.90;;;;;;4994509;28;20207;-65
2021/07/02 10:04:59;;;;;;;6.90;3.30;;;18.80;99.90;;;;;;4994243;28;20719;-68
2021/07/02 10:07:27;;;;;;;6.93;3.90;;;18.80;99.90;;;;;;4994492;28;20250;-65
2021/07/02 10:09:54;;;;;;;6.37;3.43;;;19.00;99.90;;;;;;4995584;28;20234;-65
2021/07/02 10:12:21;;;;;;;5.97;3.50;;;19.10;99.90;;;;;;4996005;28;20238;-66
2021/07/02 10:14:50;;;;;;;6.40;4.17;;;19.20;99.90;;;;;;4994804;28;20239;-64
2021/07/02 10:17:18;;;;;;;5.60;3.90;;;19.30;99.90;;;;;;5003662;28;20232;-67
2021/07/02 10:19:46;;;;;;;5.87;4.50;;;19.40;99.90;;;;;;5014685;28;20208;-64
2021/07/02 10:22:14;;;;;;;5.70;3.63;;;19.50;99.90;;;;;;5014483;28;20210;-64
2021/07/02 10:24:46;;;;;;;7.03;3.53;;;19.40;99.90;;;;;;4998136;28;20582;-64
2021/07/02 10:27:13;;;;;;;6.97;3.73;;;19.20;99.90;;;;;;4993883;28;20227;-65
2021/07/02 10:29:41;;;;;;;7.23;3.67;;;19.20;99.90;;;;;;4993922;28;20211;-65
2021/07/02 10:32:09;;;;;;;8.17;4.23;;;19.20;99.90;;;;;;4993295;28;20228;-64
2021/07/02 10:34:36;;;;;;;7.80;3.87;;;19.00;99.90;;;;;;4993645;28;20239;-64
2021/07/02 10:37:04;;;;;;;9.93;4.13;;;19.00;99.90;;;;;;4994306;28;20228;-64
2021/07/02 10:39:31;;;;;;;6.40;3.60;;;19.20;99.90;;;;;;4993901;28;20212;-62
2021/07/02 10:42:08;;;;;;;6.93;3.77;;;19.50;99.90;;;;;;4993494;28;20695;-64
2021/07/02 10:45:07;;;;;;;8.43;4.30;;;19.60;99.90;;;;;;4982624;28;20283;-67
2021/07/02 10:47:49;;;;;;;6.50;4.20;;;19.40;99.90;;;;;;4974300;28;20205;-63
2021/07/02 10:50:42;;;;;;;5.83;3.93;;;19.10;99.90;;;;;;4974067;28;20279;-66
2021/07/02 10:53:29;;;;;;;9.07;4.27;;;18.90;99.90;;;;;;4974463;28;20232;-64
2021/07/02 10:55:57;;;;;;;7.60;3.63;;;18.80;99.90;;;;;;4973631;28;20232;-65
2021/07/02 10:58:53;;;;;;;5.57;3.93;;;18.80;99.90;;;;;;4974028;28;20208;-64
2021/07/02 11:01:20;;;;;;;5.60;3.80;;;19.00;99.90;;;;;;4973396;28;20404;-66
2021/07/02 11:03:48;;;;;;;4.83;3.97;;;19.10;99.90;;;;;;4973695;28;20212;-65
2021/07/02 11:06:38;;;;;;;6.50;3.40;;;19.20;99.90;;;;;;4974098;28;20231;-66
2021/07/02 11:09:05;;;;;;;4.87;3.60;;;19.30;99.90;;;;;;4973977;28;20271;-66
2021/07/02 11:12:08;;;;;;;6.27;3.83;;;19.50;99.90;;;;;;4973849;28;20232;-66
2021/07/02 11:15:14;;;;;;;6.90;4.40;;;19.70;99.90;;;;;;4974144;28;20266;-65
2021/07/02 11:17:42;;;;;;;7.43;4.57;;;20.20;99.90;;;;;;4973891;28;20230;-66
2021/07/02 11:20:29;;;;;;;6.03;3.93;;;20.30;99.90;;;;;;4973887;28;20271;-66
2021/07/02 11:23:17;;;;;;;6.83;4.50;;;20.20;99.90;;;;;;4973499;28;20204;-66
2021/07/02 11:25:52;;;;;;;8.83;4.90;;;20.30;99.90;;;;;;4973391;28;20239;-66
2021/07/02 11:28:39;;;;;;;7.50;4.40;;;20.20;99.90;;;;;;4973069;28;20215;-64
2021/07/02 11:31:09;;;;;;;8.57;4.87;;;20.10;99.90;;;;;;4973425;28;20204;-63
2021/07/02 11:33:36;;;;;;;6.57;4.63;;;20.30;99.90;;;;;;4972796;28;20224;-64
2021/07/02 11:36:11;;;;;;;6.57;5.47;;;20.60;99.90;;;;;;4973195;28;20607;-63
2021/07/02 11:38:53;;;;;;;7.53;4.80;;;20.80;99.90;;;;;;4973035;28;20215;-64
2021/07/02 11:41:28;;;;;;;7.10;4.90;;;21.00;99.90;;;;;;4973285;28;20311;-64
2021/07/02 11:43:56;;;;;;;9.87;5.10;;;21.00;99.90;;;;;;4972661;28;20822;-63
2021/07/02 11:46:25;;;;;;;6.47;5.13;;;21.30;99.90;;;;;;4973019;28;20235;-64
2021/07/02 11:48:53;;;;;;;7.90;4.87;;;21.30;99.90;;;;;;4973282;28;20262;-65
2021/07/02 11:51:22;;;;;;;6.70;4.90;;;21.30;99.90;;;;;;4973070;28;20223;-64
2021/07/02 11:53:51;;;;;;;6.03;4.40;;;21.40;99.90;;;;;;4972780;28;20589;-63
2021/07/02 11:56:20;;;;;;;7.47;5.07;;;21.30;99.90;;;;;;4972815;28;20647;-64
2021/07/02 11:58:48;;;;;;;7.57;4.70;;;21.10;99.90;;;;;;4973056;28;20217;-63
2021/07/02 12:01:17;;;;;;;9.47;5.07;;;21.30;99.90;;;;;;4972948;28;20291;-63
2021/07/02 12:03:48;;;;;;;7.30;5.17;;;21.50;99.90;;;;;;4972493;28;20211;-64
2021/07/02 12:06:25;;;;;;;7.77;4.70;;;21.70;99.90;;;;;;4972997;28;20236;-66
2021/07/02 12:08:56;;;;;;;6.13;4.03;;;21.60;99.90;;;;;;4972669;28;20215;-66
2021/07/02 12:11:27;;;;;;;6.53;4.50;;;21.20;99.90;;;;;;4972769;28;20282;-65
2021/07/02 12:13:54;;;;;;;7.53;4.20;;;21.10;99.90;;;;;;4977134;28;20224;-63
2021/07/02 12:16:21;;;;;;;11.30;4.83;;;20.80;99.90;;;;;;4978953;28;20704;-63
2021/07/02 12:18:54;;;;;;;11.50;4.37;;;20.70;99.90;;;;;;4979143;28;20208;-62
2021/07/02 12:21:28;;;;;;;8.10;4.60;;;20.70;99.90;;;;;;4979165;28;20735;-63
2021/07/02 12:23:55;;;;;;;8.70;4.97;;;20.70;99.90;;;;;;4978636;28;20208;-63
2021/07/02 12:26:24;;;;;;;8.70;4.87;;;20.60;99.90;;;;;;4979019;28;20235;-63
2021/07/02 12:29:00;;;;;;;7.97;4.53;;;20.70;99.90;;;;;;4979481;28;20295;-64
2021/07/02 12:31:29;;;;;;;7.33;4.70;;;20.70;99.90;;;;;;4979269;28;20286;-67
2021/07/02 12:33:58;;;;;;;8.77;5.20;;;20.50;99.90;;;;;;4978463;28;20728;-66
2021/07/02 12:36:25;;;;;;;9.57;4.93;;;20.30;99.90;;;;;;4978890;28;20258;-65
2021/07/02 12:39:06;;;;;;;7.63;4.70;;;20.30;99.90;;;;;;4978937;28;20208;-66
2021/07/02 12:41:41;;;;;;;7.80;4.80;;;20.20;99.90;;;;;;4979072;28;20212;-65
2021/07/02 12:44:09;;;;;;;10.33;6.07;;;20.10;99.90;;;;;;4978646;28;20684;-65
2021/07/02 12:46:36;;;;;;;9.63;5.87;;;20.10;99.90;;;;;;4978823;28;20235;-66